Time;durP1;ratioP1;P1;durP2;ratioP2;P2;SDS_P1;SDS_P2;PMS_P1;PMS_P2;Temp;Humidity;BMP_temperature;BMP_pressure;BME280_temperature;BME280_humidity;BME280_pressure;Samples;Min_cycle;Max_cycle;Signal;HPM_P1;HPM_P2
2021/09/15 00:02:04;;;;;;;7.35;5.20;;;;;;;22.71;65.42;101290.81;5062120;28;20126;-61
2021/09/15 00:04:29;;;;;;;8.13;4.85;;;;;;;22.71;65.73;101288.94;5066873;28;20518;-61
2021/09/15 00:06:55;;;;;;;11.70;5.43;;;;;;;22.71;65.66;101286.28;5080679;28;20663;-61
2021/09/15 00:09:20;;;;;;;5.95;4.53;;;;;;;22.71;65.68;101290.81;5086460;28;20052;-61
2021/09/15 00:11:46;;;;;;;8.25;5.13;;;;;;;22.71;65.68;101288.13;5069720;28;20051;-61
2021/09/15 00:14:11;;;;;;;7.75;4.72;;;;;;;22.71;65.73;101290.81;5058976;28;20127;-61
2021/09/15 00:16:37;;;;;;;8.60;5.25;;;;;;;22.70;65.60;101292.66;5087495;28;20040;-61
2021/09/15 00:19:03;;;;;;;9.52;5.43;;;;;;;22.71;65.98;101286.28;5069258;28;20135;-61
2021/09/15 00:21:29;;;;;;;7.50;5.00;;;;;;;22.71;65.95;101285.44;5074918;28;20039;-61
2021/09/15 00:23:55;;;;;;;7.32;4.95;;;;;;;22.71;65.71;101286.28;5062190;28;20037;-61
2021/09/15 00:26:20;;;;;;;6.43;4.55;;;;;;;22.71;65.62;101291.63;5075393;28;20466;-61
2021/09/15 00:28:46;;;;;;;7.82;5.30;;;;;;;22.69;65.89;101285.66;5068611;28;20036;-61
2021/09/15 00:31:11;;;;;;;8.32;5.35;;;;;;;22.71;65.90;101291.63;5072281;28;20041;-61
2021/09/15 00:33:37;;;;;;;8.15;5.03;;;;;;;22.71;65.95;101291.63;5088202;28;20074;-61
2021/09/15 00:36:02;;;;;;;8.55;4.80;;;;;;;22.70;65.55;101295.34;5068275;28;20347;-61
2021/09/15 00:38:28;;;;;;;7.30;4.90;;;;;;;22.71;65.83;101290.81;5087935;28;20063;-61
2021/09/15 00:40:54;;;;;;;7.47;4.68;;;;;;;22.70;65.70;101289.16;5068256;28;20096;-61
2021/09/15 00:43:20;;;;;;;8.73;5.20;;;;;;;22.71;65.71;101288.94;5087521;28;20033;-61
2021/09/15 00:45:45;;;;;;;6.65;4.97;;;;;;;22.70;65.78;101289.97;5087217;28;20119;-61
2021/09/15 00:48:11;;;;;;;9.10;5.40;;;;;;;22.70;65.83;101287.31;5087441;28;20040;-61
2021/09/15 00:50:36;;;;;;;8.57;4.75;;;;;;;22.70;65.71;101279.28;5087480;28;20482;-61
2021/09/15 00:53:02;;;;;;;8.13;4.93;;;;;;;22.70;65.74;101286.47;5090891;28;20805;-61
2021/09/15 00:55:28;;;;;;;6.55;4.43;;;;;;;22.70;65.71;101284.63;5072433;28;20139;-61
2021/09/15 00:57:56;;;;;;;6.53;4.70;;;;;;;22.71;65.73;101291.63;5063379;28;20115;-61
2021/09/15 01:00:22;;;;;;;7.45;4.45;;;;;;;22.70;65.78;101289.97;5075684;28;20467;-61
2021/09/15 01:02:47;;;;;;;5.65;4.30;;;;;;;22.71;65.70;101290.81;5063137;28;20068;-61
2021/09/15 01:05:13;;;;;;;6.78;4.47;;;;;;;22.71;65.65;101290.81;5089508;28;21290;-61
2021/09/15 01:07:40;;;;;;;7.47;4.90;;;;;;;22.73;65.50;101293.31;5090348;28;20059;-61
2021/09/15 01:10:06;;;;;;;7.85;4.45;;;;;;;22.73;65.57;101293.31;5062289;28;20029;-61
2021/09/15 01:12:33;;;;;;;7.55;4.68;;;;;;;22.71;65.50;101286.28;5078463;28;20064;-61
2021/09/15 01:14:58;;;;;;;6.38;4.30;;;;;;;22.71;65.42;101288.94;5067594;28;20043;-61
2021/09/15 01:17:24;;;;;;;7.45;4.82;;;;;;;22.71;65.45;101294.31;5088242;28;20028;-61
2021/09/15 01:19:49;;;;;;;7.53;4.47;;;;;;;22.70;65.45;101281.97;5073637;28;20040;-61
2021/09/15 01:22:15;;;;;;;8.05;5.20;;;;;;;22.69;65.58;101285.66;5064699;28;20039;-61
2021/09/15 01:24:40;;;;;;;7.53;4.65;;;;;;;22.70;65.56;101284.63;5087181;28;20052;-61
2021/09/15 01:27:06;;;;;;;8.57;4.72;;;;;;;22.70;65.36;101292.66;5054719;28;20062;-61
2021/09/15 01:29:33;;;;;;;6.85;4.40;;;;;;;22.71;65.62;101288.13;5077355;28;20049;-61
2021/09/15 01:32:01;;;;;;;6.80;4.43;;;;;;;22.71;65.50;101280.09;5089700;28;20373;-61
2021/09/15 01:34:31;;;;;;;6.18;4.55;;;;;;;22.71;65.62;101283.59;5089662;28;20038;-61
2021/09/15 01:36:57;;;;;;;5.50;4.18;;;;;;;22.71;65.33;101286.28;5089524;28;20028;-61
2021/09/15 01:39:23;;;;;;;6.93;4.55;;;;;;;22.71;65.43;101286.28;5076077;28;20405;-61
2021/09/15 01:41:50;;;;;;;5.68;4.35;;;;;;;22.71;65.67;101282.78;5071427;28;20031;-61
2021/09/15 01:44:15;;;;;;;7.28;4.22;;;;;;;22.71;65.33;101286.28;5089788;28;20035;-61
2021/09/15 01:46:41;;;;;;;6.80;4.40;;;;;;;22.71;65.70;101280.94;5060625;28;20481;-60
2021/09/15 01:49:06;;;;;;;6.15;4.25;;;;;;;22.71;65.66;101285.44;5070398;28;20040;-61
2021/09/15 01:51:32;;;;;;;6.13;4.22;;;;;;;22.71;65.63;101282.78;5066854;28;20360;-61
2021/09/15 01:53:57;;;;;;;5.45;3.80;;;;;;;22.71;65.77;101277.44;5073170;28;20033;-61
2021/09/15 01:56:23;;;;;;;6.75;4.13;;;;;;;22.71;65.87;101285.44;5077258;28;20032;-61
2021/09/15 01:58:48;;;;;;;7.03;4.05;;;;;;;22.71;66.09;101280.94;5060763;28;20560;-60
2021/09/15 02:01:14;;;;;;;6.22;4.13;;;;;;;22.71;65.88;101283.59;5073190;28;20060;-61
2021/09/15 02:03:39;;;;;;;5.40;3.85;;;;;;;22.71;66.16;101280.94;5086970;28;20120;-61
2021/09/15 02:06:04;;;;;;;4.50;3.70;;;;;;;22.71;65.96;101278.25;5088634;28;20028;-61
2021/09/15 02:08:30;;;;;;;5.13;3.65;;;;;;;22.71;66.18;101280.94;5070855;28;20707;-61
2021/09/15 02:10:55;;;;;;;7.60;3.78;;;;;;;22.71;65.91;101280.09;5069571;28;20053;-61
2021/09/15 02:13:21;;;;;;;6.38;3.90;;;;;;;22.71;66.08;101280.94;5078762;28;20040;-61
2021/09/15 02:15:46;;;;;;;6.25;4.10;;;;;;;22.71;65.93;101278.25;5057424;28;20044;-61
2021/09/15 02:18:12;;;;;;;5.28;4.10;;;;;;;22.72;66.21;101276.41;5058364;28;20031;-60
2021/09/15 02:20:39;;;;;;;5.60;3.45;;;;;;;22.72;66.08;101273.72;5088690;28;20051;-60
2021/09/15 02:23:04;;;;;;;5.72;3.97;;;;;;;22.73;66.25;101271.91;5070478;28;20034;-61
2021/09/15 02:25:30;;;;;;;5.43;3.70;;;;;;;22.72;66.35;101271.06;5081425;28;20033;-60
2021/09/15 02:27:55;;;;;;;5.30;3.50;;;;;;;22.72;66.21;101279.06;5084301;28;20398;-61
2021/09/15 02:30:21;;;;;;;6.40;3.88;;;;;;;22.73;66.23;101271.91;5088792;28;20040;-60
2021/09/15 02:32:46;;;;;;;5.75;4.13;;;;;;;22.71;66.29;101272.91;5089285;28;20039;-60
2021/09/15 02:35:12;;;;;;;6.00;4.05;;;;;;;22.72;66.16;101271.06;5086521;28;20467;-60
2021/09/15 02:37:38;;;;;;;5.97;4.25;;;;;;;22.73;66.31;101274.59;5082941;28;20031;-61
2021/09/15 02:40:05;;;;;;;4.97;3.67;;;;;;;22.72;66.25;101273.72;5068122;28;20048;-61
2021/09/15 02:42:30;;;;;;;5.55;4.00;;;;;;;22.72;66.12;101273.72;5067042;28;20569;-61
2021/09/15 02:44:56;;;;;;;6.10;3.63;;;;;;;22.72;66.08;101265.69;5066002;28;20037;-61
2021/09/15 02:47:21;;;;;;;4.82;3.50;;;;;;;22.73;66.32;101261.22;5052490;28;20048;-61
2021/09/15 02:49:46;;;;;;;4.55;3.53;;;;;;;22.73;66.43;101255.84;5059206;28;20036;-61
2021/09/15 02:52:12;;;;;;;4.40;3.20;;;;;;;22.73;66.08;101253.19;5048734;28;20041;-61
2021/09/15 02:54:38;;;;;;;5.63;4.07;;;;;;;22.73;66.56;101261.22;5048592;28;20048;-61
2021/09/15 02:57:03;;;;;;;5.15;3.97;;;;;;;22.74;66.29;101257.50;5052400;28;20377;-61
2021/09/15 02:59:29;;;;;;;5.50;4.00;;;;;;;22.71;66.15;101248.84;5049570;28;20097;-60
2021/09/15 03:01:54;;;;;;;4.85;3.80;;;;;;;22.72;66.42;101249.66;5048296;28;20445;-61
2021/09/15 03:04:20;;;;;;;4.60;3.50;;;;;;;22.72;66.44;101260.34;5046100;28;20036;-61
2021/09/15 03:06:45;;;;;;;4.85;3.67;;;;;;;22.73;66.43;101251.34;5035246;28;20037;-61
2021/09/15 03:09:11;;;;;;;6.53;3.97;;;;;;;22.72;66.38;101249.66;5047489;28;20154;-61
2021/09/15 03:11:36;;;;;;;5.55;3.90;;;;;;;22.73;66.11;101251.34;5054471;28;20051;-61
2021/09/15 03:14:02;;;;;;;5.05;3.53;;;;;;;22.73;66.49;101247.84;5064753;28;20039;-61
2021/09/15 03:16:28;;;;;;;4.93;3.72;;;;;;;22.73;66.47;101250.50;5049412;28;20487;-61
2021/09/15 03:18:53;;;;;;;4.63;3.50;;;;;;;22.73;66.26;101245.16;5048774;28;20037;-61
2021/09/15 03:21:19;;;;;;;5.88;3.65;;;;;;;22.72;66.23;101246.97;5063623;28;20024;-61
2021/09/15 03:23:44;;;;;;;4.07;3.50;;;;;;;22.73;66.59;101240.63;5063575;28;20078;-61
2021/09/15 03:26:10;;;;;;;4.50;3.63;;;;;;;22.72;66.38;101244.31;5068234;28;20264;-60
2021/09/15 03:28:35;;;;;;;5.50;3.83;;;;;;;22.73;66.32;101245.16;5068016;28;20090;-61
2021/09/15 03:31:01;;;;;;;5.18;3.75;;;;;;;22.71;66.34;101251.50;5067831;28;20051;-61
2021/09/15 03:33:26;;;;;;;4.50;3.40;;;;;;;22.72;66.59;101244.31;5062378;28;20032;-61
2021/09/15 03:35:52;;;;;;;5.63;3.92;;;;;;;22.73;66.62;101242.47;5067514;28;20033;-61
2021/09/15 03:38:17;;;;;;;5.25;3.85;;;;;;;22.71;66.43;101246.16;5068125;28;20076;-61
2021/09/15 03:40:43;;;;;;;5.65;3.70;;;;;;;22.73;66.45;101242.47;5068183;28;20041;-61
2021/09/15 03:43:08;;;;;;;5.57;3.65;;;;;;;22.72;66.43;101233.59;5060760;28;20048;-61
2021/09/15 03:45:34;;;;;;;5.40;3.80;;;;;;;22.72;66.71;101241.63;5067436;28;20028;-61
2021/09/15 03:47:59;;;;;;;5.30;3.78;;;;;;;22.73;66.65;101237.13;5068523;28;20452;-61
2021/09/15 03:50:25;;;;;;;5.18;3.63;;;;;;;22.73;66.56;101239.81;5050719;28;20075;-61
2021/09/15 03:52:50;;;;;;;5.63;3.58;;;;;;;22.71;66.54;101240.81;5051697;28;20040;-61
2021/09/15 03:55:16;;;;;;;5.22;3.50;;;;;;;22.73;66.67;101247.84;5053166;28;20036;-61
2021/09/15 03:57:41;;;;;;;5.53;4.10;;;;;;;22.72;66.70;101249.66;5068451;28;20032;-61
2021/09/15 04:00:07;;;;;;;4.60;3.47;;;;;;;22.73;66.65;101247.84;5066752;28;20043;-61
2021/09/15 04:02:33;;;;;;;4.63;3.80;;;;;;;22.73;66.78;101237.13;5054946;28;20032;-61
2021/09/15 04:04:58;;;;;;;4.20;3.33;;;;;;;22.71;66.57;101248.84;5057747;28;20365;-61
2021/09/15 04:07:24;;;;;;;5.57;3.50;;;;;;;22.73;66.33;101248.66;5067924;28;20777;-61
2021/09/15 04:09:49;;;;;;;4.57;3.80;;;;;;;22.72;66.44;101249.66;5059790;28;20033;-61
2021/09/15 04:12:15;;;;;;;5.20;3.42;;;;;;;22.73;66.34;101245.16;5061845;28;20040;-60
2021/09/15 04:14:41;;;;;;;4.65;3.60;;;;;;;22.73;66.79;101247.84;5054793;28;20051;-61
2021/09/15 04:17:07;;;;;;;6.60;3.88;;;;;;;22.73;66.50;101250.50;5050176;28;20048;-61
2021/09/15 04:19:32;;;;;;;4.55;3.55;;;;;;;22.73;66.65;101247.84;5067495;28;20033;-60
2021/09/15 04:21:58;;;;;;;4.18;3.58;;;;;;;22.72;67.03;101244.31;5067422;28;20494;-61
2021/09/15 04:31:05;;;;;;;4.50;3.58;;;;;;;22.72;66.73;101249.66;5055498;28;20052;-61
2021/09/15 04:32:40;;;;;;;4.55;3.25;;;;;;;22.71;66.55;101253.38;5070029;28;20128;-60
2021/09/15 04:35:06;;;;;;;4.30;3.25;;;;;;;22.71;66.56;101242.66;5052712;28;20480;-60
2021/09/15 04:37:31;;;;;;;4.80;3.28;;;;;;;22.71;66.51;101248.84;5071389;28;20124;-60
2021/09/15 04:39:56;;;;;;;4.15;3.40;;;;;;;22.71;66.73;101248.84;5071426;28;20115;-60
2021/09/15 04:42:22;;;;;;;4.28;3.50;;;;;;;22.72;66.93;101249.66;5071376;28;20029;-60
2021/09/15 04:44:48;;;;;;;4.63;3.40;;;;;;;22.72;66.57;101255.00;5067249;28;20040;-60
2021/09/15 04:47:13;;;;;;;4.28;3.15;;;;;;;22.72;66.69;101255.00;5071634;28;20036;-61
2021/09/15 04:49:38;;;;;;;5.10;3.60;;;;;;;22.71;66.56;101259.53;5060866;28;20413;-61
2021/09/15 04:52:04;;;;;;;5.03;3.05;;;;;;;22.71;66.57;101254.19;5051988;28;20033;-61
2021/09/15 04:54:29;;;;;;;4.00;3.10;;;;;;;22.69;66.64;101253.56;5062639;28;20041;-60
2021/09/15 04:56:55;;;;;;;4.28;3.30;;;;;;;22.71;66.54;101254.19;5052166;28;20024;-61
2021/09/15 04:59:20;;;;;;;4.90;3.40;;;;;;;22.70;66.73;101252.53;5070426;28;20032;-61
2021/09/15 05:01:45;;;;;;;4.10;3.28;;;;;;;22.71;66.84;101258.72;5069443;28;20032;-61
2021/09/15 05:04:11;;;;;;;5.20;4.00;;;;;;;22.71;66.58;101259.53;5067796;28;20495;-61
2021/09/15 05:06:37;;;;;;;3.63;3.17;;;;;;;22.72;66.40;101265.69;5069727;28;20468;-60
2021/09/15 05:09:02;;;;;;;4.43;3.45;;;;;;;22.73;66.58;101271.91;5059771;28;20059;-60
2021/09/15 05:11:28;;;;;;;5.55;3.90;;;;;;;22.69;66.67;101266.94;5070244;28;20496;-61
2021/09/15 05:13:53;;;;;;;5.25;3.50;;;;;;;22.71;66.56;101267.56;5058610;28;20135;-61
2021/09/15 05:16:18;;;;;;;4.03;3.13;;;;;;;22.71;66.60;101267.56;5068834;28;20146;-61
2021/09/15 05:18:44;;;;;;;4.40;3.53;;;;;;;22.71;66.70;101267.56;5070309;28;20040;-61
2021/09/15 05:21:09;;;;;;;4.05;3.20;;;;;;;22.72;66.73;101268.38;5069051;28;20078;-61
2021/09/15 05:23:35;;;;;;;3.95;3.28;;;;;;;22.70;66.59;101268.59;5061866;28;20523;-61
2021/09/15 05:26:00;;;;;;;4.50;3.50;;;;;;;22.71;66.60;101269.41;5055230;28;20411;-61
2021/09/15 05:28:26;;;;;;;4.53;3.47;;;;;;;22.72;66.48;101268.38;5070014;28;20554;-61
2021/09/15 05:30:52;;;;;;;4.65;3.63;;;;;;;22.72;66.65;101268.38;5068700;28;20462;-61
2021/09/15 05:33:17;;;;;;;4.50;3.50;;;;;;;22.71;66.39;101269.41;5069898;28;20647;-61
2021/09/15 05:35:43;;;;;;;5.00;3.50;;;;;;;22.70;66.72;101268.59;5060512;28;20139;-60
2021/09/15 05:38:08;;;;;;;4.28;3.63;;;;;;;22.72;66.42;101268.38;5066555;28;20040;-60
2021/09/15 05:40:33;;;;;;;5.07;3.42;;;;;;;22.72;66.23;101271.06;5069664;28;20036;-61
2021/09/15 05:42:59;;;;;;;4.28;3.35;;;;;;;22.71;66.69;101270.22;5070145;28;20032;-61
2021/09/15 05:45:24;;;;;;;4.28;3.30;;;;;;;22.71;66.70;101272.09;5063762;28;20037;-61
2021/09/15 05:47:50;;;;;;;4.55;3.25;;;;;;;22.73;66.42;101277.25;5063284;28;20060;-60
2021/09/15 05:50:16;;;;;;;4.95;3.35;;;;;;;22.71;66.50;101286.28;5052221;28;20032;-61
2021/09/15 05:52:41;;;;;;;4.93;3.90;;;;;;;22.73;66.51;101282.59;5031941;28;20057;-61
2021/09/15 05:55:07;;;;;;;4.60;3.70;;;;;;;22.73;66.59;101277.25;5034270;28;20436;-61
2021/09/15 05:57:33;;;;;;;4.60;3.78;;;;;;;22.72;66.77;101281.75;5068226;28;20634;-61
2021/09/15 05:59:59;;;;;;;4.20;3.75;;;;;;;22.73;66.79;101282.59;5069313;28;20036;-61
2021/09/15 06:02:24;;;;;;;4.70;3.60;;;;;;;22.72;66.78;101281.75;5068408;28;20427;-61
2021/09/15 06:04:50;;;;;;;4.20;3.47;;;;;;;22.71;66.67;101285.44;5067215;28;20465;-63
2021/09/15 06:07:15;;;;;;;4.93;3.80;;;;;;;22.71;66.51;101283.59;5064163;28;20353;-65
2021/09/15 06:09:41;;;;;;;4.05;3.30;;;;;;;22.72;66.70;101289.78;5047919;28;20076;-63
2021/09/15 06:12:06;;;;;;;3.42;3.03;;;;;;;22.73;66.53;101287.94;5062585;28;20028;-62
2021/09/15 06:14:32;;;;;;;5.22;3.40;;;;;;;22.70;66.34;101281.97;5051250;28;20041;-62
2021/09/15 06:16:57;;;;;;;3.70;2.90;;;;;;;22.71;66.50;101293.47;5066950;28;20103;-63
2021/09/15 06:19:23;;;;;;;4.00;3.13;;;;;;;22.70;66.44;101287.31;5068993;28;20060;-63
2021/09/15 06:21:48;;;;;;;4.20;3.60;;;;;;;22.71;66.74;101286.28;5067333;28;20044;-63
2021/09/15 06:24:15;;;;;;;5.35;3.33;;;;;;;22.70;66.50;101287.31;5068406;28;20131;-63
2021/09/15 06:26:40;;;;;;;5.25;3.53;;;;;;;22.71;66.59;101288.94;5059327;28;20344;-63
2021/09/15 06:29:06;;;;;;;4.70;3.65;;;;;;;22.71;66.77;101291.63;5069343;28;20029;-63
2021/09/15 06:31:31;;;;;;;4.15;3.13;;;;;;;22.71;66.48;101294.31;5068131;28;20402;-63
2021/09/15 06:33:57;;;;;;;4.47;3.45;;;;;;;22.70;66.76;101298.00;5068828;28;20111;-63
2021/09/15 06:36:23;;;;;;;3.50;2.95;;;;;;;22.69;66.60;101299.03;5055658;28;20072;-63
2021/09/15 06:38:48;;;;;;;4.20;3.63;;;;;;;22.70;66.76;101300.69;5069529;28;20040;-63
2021/09/15 06:41:15;;;;;;;4.57;3.55;;;;;;;22.70;66.58;101300.69;5068739;28;20071;-63
2021/09/15 06:43:41;;;;;;;5.05;3.58;;;;;;;22.68;66.67;101297.38;5067546;28;20251;-63
2021/09/15 06:46:07;;;;;;;4.22;3.33;;;;;;;22.71;66.41;101301.50;5053356;28;20489;-63
2021/09/15 06:48:33;;;;;;;5.53;3.40;;;;;;;22.71;66.43;101304.19;5065576;28;20033;-63
2021/09/15 06:50:58;;;;;;;7.15;3.60;;;;;;;22.70;66.61;101303.34;5048414;28;20378;-63
2021/09/15 06:53:24;;;;;;;4.78;3.25;;;;;;;22.70;66.69;101311.38;5048551;28;20033;-63
2021/09/15 06:55:50;;;;;;;6.57;3.72;;;;;;;22.71;66.84;101312.19;5057708;28;20359;-63
2021/09/15 06:58:15;;;;;;;4.32;3.38;;;;;;;22.71;66.81;101314.88;5068623;28;20082;-63
2021/09/15 07:00:41;;;;;;;4.57;3.10;;;;;;;22.70;66.81;101314.06;5065891;28;20049;-63
2021/09/15 07:03:06;;;;;;;8.18;3.58;;;;;;;22.71;66.92;101318.38;5070160;28;20146;-63
2021/09/15 07:05:32;;;;;;;10.02;4.40;;;;;;;22.71;66.78;101315.69;5067096;28;20041;-60
2021/09/15 07:07:57;;;;;;;6.88;3.80;;;;;;;22.72;67.11;101321.88;5067996;28;20036;-62
2021/09/15 07:10:23;;;;;;;6.88;4.05;;;;;;;22.71;67.06;101321.03;5067671;28;20040;-62
2021/09/15 07:12:49;;;;;;;6.05;3.90;;;;;;;22.72;67.32;101319.19;5066922;28;20047;-62
2021/09/15 07:15:15;;;;;;;6.93;4.43;;;;;;;22.73;67.35;101322.72;5064995;28;20090;-62
2021/09/15 07:17:44;;;;;;;8.75;3.97;;;;;;;22.71;67.48;101321.03;5065394;28;20064;-62
2021/09/15 07:20:12;;;;;;;5.50;4.20;;;;;;;22.73;67.54;101328.91;5064827;28;20055;-62
2021/09/15 07:22:37;;;;;;;6.05;4.18;;;;;;;22.74;67.42;101329.72;5065015;28;20071;-62
2021/09/15 07:25:03;;;;;;;10.18;4.00;;;;;;;22.72;67.52;101329.88;5066598;28;20040;-62
2021/09/15 07:27:28;;;;;;;6.97;4.53;;;;;;;22.73;67.56;101328.91;5067775;28;20511;-63
2021/09/15 07:29:54;;;;;;;8.10;4.32;;;;;;;22.72;67.56;101340.59;5067614;28;20025;-63
2021/09/15 07:32:19;;;;;;;7.00;4.60;;;;;;;22.74;67.86;101343.09;5058298;28;20439;-62
2021/09/15 07:34:45;;;;;;;7.95;4.70;;;;;;;22.74;67.76;101335.06;5066028;28;20036;-63
2021/09/15 07:37:14;;;;;;;7.53;4.97;;;;;;;22.74;67.80;101348.44;5064882;28;20036;-62
2021/09/15 07:39:41;;;;;;;8.98;5.15;;;;;;;22.74;67.78;101346.59;5063087;28;20039;-61
2021/09/15 07:42:08;;;;;;;8.15;5.00;;;;;;;22.76;68.01;101341.03;5063531;28;20032;-62
2021/09/15 07:44:34;;;;;;;10.88;5.35;;;;;;;22.76;67.90;101341.03;5062697;28;20043;-62
2021/09/15 07:46:59;;;;;;;7.45;5.75;;;;;;;22.76;68.00;101336.50;5063071;28;20068;-62
2021/09/15 07:49:25;;;;;;;18.77;8.55;;;;;;;22.75;67.81;101347.41;5055265;28;20071;-63
2021/09/15 07:51:51;;;;;;;26.63;10.43;;;;;;;22.75;67.93;101344.72;5058524;28;20032;-62
2021/09/15 07:54:16;;;;;;;25.38;9.85;;;;;;;22.75;67.68;101350.09;5061284;28;20047;-62
2021/09/15 07:56:42;;;;;;;19.25;9.10;;;;;;;22.73;67.78;101347.63;5065189;28;20034;-63
2021/09/15 07:59:07;;;;;;;19.88;9.10;;;;;;;22.73;67.20;101341.44;5060237;28;20522;-62
2021/09/15 08:01:33;;;;;;;19.23;9.70;;;;;;;22.71;66.93;101345.13;5069733;28;20055;-62
2021/09/15 08:03:58;;;;;;;16.58;9.27;;;;;;;22.69;66.59;101344.50;5068346;28;20037;-63
2021/09/15 08:06:24;;;;;;;19.20;9.70;;;;;;;22.67;66.48;101343.88;5070041;28;20406;-63
2021/09/15 08:08:50;;;;;;;21.92;9.07;;;;;;;22.65;65.93;101345.94;5061716;28;20420;-63
2021/09/15 08:11:15;;;;;;;19.50;10.00;;;;;;;22.64;66.16;101346.97;5050428;28;20465;-62
2021/09/15 08:13:41;;;;;;;20.27;9.93;;;;;;;22.64;66.44;101351.50;5051215;28;20511;-62
2021/09/15 08:16:07;;;;;;;14.52;9.30;;;;;;;22.62;65.90;101349.03;5050153;28;20361;-63
2021/09/15 08:18:33;;;;;;;18.63;9.77;;;;;;;22.62;65.64;101356.22;5050926;28;20041;-63
2021/09/15 08:21:00;;;;;;;17.70;9.88;;;;;;;22.61;65.58;101355.41;5049962;28;20115;-62
2021/09/15 08:23:25;;;;;;;13.32;8.90;;;;;;;22.60;65.68;101359.13;5051118;28;20021;-63
2021/09/15 08:25:51;;;;;;;17.35;9.18;;;;;;;22.60;65.43;101352.94;5050405;28;20047;-63
2021/09/15 08:28:17;;;;;;;13.75;8.93;;;;;;;22.59;65.32;101360.13;5051221;28;20605;-62
2021/09/15 08:30:42;;;;;;;13.48;8.68;;;;;;;22.60;65.30;101352.94;5050352;28;20127;-63
2021/09/15 08:33:07;;;;;;;13.23;7.60;;;;;;;22.60;65.79;101355.63;5050432;28;20121;-62
2021/09/15 08:35:33;;;;;;;15.35;7.82;;;;;;;22.61;65.89;101357.25;5050219;28;20387;-62
2021/09/15 08:38:00;;;;;;;12.43;8.15;;;;;;;22.61;65.90;101363.44;5032435;28;20079;-62
2021/09/15 08:40:26;;;;;;;13.65;8.63;;;;;;;22.62;65.50;101366.94;5050598;28;20167;-62
2021/09/15 08:42:51;;;;;;;11.07;8.23;;;;;;;22.62;65.19;101361.59;5050770;28;20464;-63
2021/09/15 08:45:17;;;;;;;14.13;7.88;;;;;;;22.61;65.39;101368.78;5037986;28;20065;-62
2021/09/15 08:47:47;;;;;;;13.48;7.80;;;;;;;22.60;65.06;101380.50;5046520;28;20045;-62
2021/09/15 08:50:15;;;;;;;9.77;6.85;;;;;;;22.61;65.26;101376.81;5036170;28;20057;-62
2021/09/15 08:52:41;;;;;;;13.23;8.27;;;;;;;22.62;64.89;101382.97;5028334;28;20365;-62
2021/09/15 08:55:08;;;;;;;13.20;7.97;;;;;;;22.61;64.71;101382.16;5032763;28;20540;-62
2021/09/15 08:57:34;;;;;;;9.93;7.50;;;;;;;22.62;64.58;101385.66;5050964;28;20029;-62
2021/09/15 08:59:59;;;;;;;9.63;7.55;;;;;;;22.61;64.58;101386.69;5050513;28;20492;-62
2021/09/15 09:02:33;;;;;;;10.85;7.45;;;;;;;22.60;64.41;101385.84;5050458;28;20522;-63
2021/09/15 09:05:02;;;;;;;17.73;9.50;;;;;;;22.60;64.41;101383.19;5050483;28;20117;-62
2021/09/15 09:07:32;;;;;;;10.75;7.70;;;;;;;22.59;64.09;101389.56;5050836;28;20160;-62
2021/09/15 09:10:09;;;;;;;11.77;8.13;;;;;;;22.59;64.11;101386.06;5068882;28;20059;-62
2021/09/15 09:12:36;;;;;;;11.75;7.28;;;;;;;22.58;64.00;101387.09;5070619;28;20081;-62
2021/09/15 09:15:15;;;;;;;12.68;8.55;;;;;;;22.55;63.65;101393.63;5070424;28;20025;-62
2021/09/15 09:17:41;;;;;;;11.65;8.13;;;;;;;22.57;63.92;101391.63;5069110;28;20032;-63
2021/09/15 09:20:14;;;;;;;11.80;7.82;;;;;;;22.55;63.82;101392.81;5048770;28;20068;-62
2021/09/15 09:23:01;;;;;;;12.35;7.60;;;;;;;22.53;63.81;101394.88;5066503;28;20143;-62
2021/09/15 09:25:31;;;;;;;13.30;8.18;;;;;;;22.56;64.02;101394.47;5070462;28;20036;-63
2021/09/15 09:27:57;;;;;;;10.90;8.05;;;;;;;22.56;63.95;101397.97;5070650;28;20027;-62
2021/09/15 09:30:39;;;;;;;12.40;7.55;;;;;;;22.55;63.88;101395.50;5068457;28;20048;-62
2021/09/15 09:33:06;;;;;;;11.05;7.40;;;;;;;22.55;64.03;101393.63;5070244;28;20036;-62
2021/09/15 09:35:40;;;;;;;9.18;7.10;;;;;;;22.54;64.09;101389.31;5069713;28;20140;-62
2021/09/15 09:38:26;;;;;;;12.27;7.82;;;;;;;22.54;64.25;101396.53;5070203;28;20055;-62
2021/09/15 09:40:58;;;;;;;11.13;7.60;;;;;;;22.55;64.03;101398.97;5070133;28;20031;-62
2021/09/15 09:43:24;;;;;;;10.35;7.25;;;;;;;22.57;63.63;101404.16;5068621;28;20050;-62
2021/09/15 09:45:50;;;;;;;10.35;7.53;;;;;;;22.57;63.91;101398.81;5069752;28;20037;-62
2021/09/15 09:48:40;;;;;;;10.75;7.50;;;;;;;22.52;63.73;101404.75;5068753;28;20043;-64
2021/09/15 09:51:29;;;;;;;11.55;7.85;;;;;;;22.53;63.77;101403.72;5069519;28;20031;-62
2021/09/15 09:54:18;;;;;;;11.57;7.97;;;;;;;22.52;64.07;101404.75;5070013;28;20040;-62
2021/09/15 09:56:45;;;;;;;11.05;7.80;;;;;;;22.56;63.98;101397.97;5069867;28;20043;-62
2021/09/15 09:59:12;;;;;;;9.70;7.55;;;;;;;22.55;63.88;101409.69;5046962;28;20033;-62
2021/09/15 10:01:50;;;;;;;12.32;7.75;;;;;;;22.52;63.58;101404.75;5062168;28;20036;-62
2021/09/15 10:04:17;;;;;;;12.00;7.78;;;;;;;22.55;63.65;101411.53;5069469;28;20434;-62
2021/09/15 10:06:44;;;;;;;11.45;8.50;;;;;;;22.54;63.54;101412.56;5069182;28;20116;-62
2021/09/15 10:09:10;;;;;;;13.60;9.10;;;;;;;22.53;63.59;101409.06;5069478;28;20526;-62
2021/09/15 10:11:39;;;;;;;10.18;7.43;;;;;;;22.53;63.59;101409.06;5069413;28;20032;-62
2021/09/15 10:14:08;;;;;;;11.13;8.00;;;;;;;22.53;63.54;101411.75;5069849;28;20040;-62
2021/09/15 10:16:46;;;;;;;12.07;8.70;;;;;;;22.51;63.36;101419.13;5069371;28;20036;-62
2021/09/15 10:19:16;;;;;;;10.73;7.55;;;;;;;22.51;63.63;101413.78;5069469;28;20032;-62
2021/09/15 10:21:42;;;;;;;12.80;7.88;;;;;;;22.51;63.77;101412.97;5068361;28;20107;-62
2021/09/15 10:24:07;;;;;;;13.15;7.80;;;;;;;22.51;63.39;101412.97;5069266;28;20540;-62
2021/09/15 10:26:34;;;;;;;12.30;7.00;;;;;;;22.52;63.52;101412.75;5055182;28;20067;-62
2021/09/15 10:29:29;;;;;;;10.27;7.10;;;;;;;22.49;63.56;101412.34;5069328;28;20080;-62
2021/09/15 10:32:09;;;;;;;9.40;7.10;;;;;;;22.48;63.81;101408.03;5056956;28;20044;-62
2021/09/15 10:34:38;;;;;;;10.77;6.78;;;;;;;22.50;63.53;101406.78;5068833;28;20407;-62
2021/09/15 10:37:12;;;;;;;13.30;6.60;;;;;;;22.49;63.77;101412.34;5068869;28;20032;-62
2021/09/15 10:39:54;;;;;;;8.18;6.47;;;;;;;22.46;63.54;101413.59;5067063;28;20159;-62
2021/09/15 10:42:38;;;;;;;9.50;6.20;;;;;;;22.45;63.41;101414.59;5069232;28;20520;-62
2021/09/15 10:45:25;;;;;;;;;;;;;;;22.38;63.79;101413.75;5068481;28;20341;-62
2021/09/15 10:48:09;;;;;;;9.73;6.45;;;;;;;22.42;63.38;101413.16;5068776;28;19951;-62
2021/09/15 10:50:40;;;;;;;11.38;6.75;;;;;;;22.44;63.54;101412.97;5068002;28;20104;-62
2021/09/15 10:53:08;;;;;;;7.60;6.30;;;;;;;22.44;63.41;101420.16;5069134;28;20024;-62
2021/09/15 10:55:39;;;;;;;10.20;6.57;;;;;;;22.42;63.44;101413.16;5068274;28;20055;-63
2021/09/15 10:58:15;;;;;;;11.45;6.32;;;;;;;22.42;63.67;101412.34;5069289;28;20024;-63
2021/09/15 11:00:56;;;;;;;8.10;6.03;;;;;;;22.41;63.28;101411.53;5065620;28;20115;-62
2021/09/15 11:03:35;;;;;;;9.68;6.15;;;;;;;22.40;63.54;101411.69;5068652;28;20039;-63
2021/09/15 11:06:06;;;;;;;8.63;6.68;;;;;;;22.43;63.40;101408.66;5067412;28;20028;-62
2021/09/15 11:08:47;;;;;;;8.45;6.00;;;;;;;22.41;63.69;101408.03;5068355;28;20047;-62
2021/09/15 11:11:21;;;;;;;8.48;5.85;;;;;;;22.42;63.67;101404.31;5066573;28;20052;-62
2021/09/15 11:13:50;;;;;;;8.40;5.70;;;;;;;22.44;63.73;101401.44;5068236;28;20067;-62
2021/09/15 11:16:26;;;;;;;8.40;5.72;;;;;;;22.42;63.71;101401.66;5067676;28;20112;-62
2021/09/15 11:18:56;;;;;;;11.05;5.68;;;;;;;22.44;63.62;101401.44;5066731;28;20040;-62
2021/09/15 11:21:23;;;;;;;9.63;5.57;;;;;;;22.43;63.32;101400.63;5067846;28;20028;-62
2021/09/15 11:23:57;;;;;;;10.45;5.55;;;;;;;22.43;63.47;101405.97;5068270;28;20490;-62
2021/09/15 11:27:05;;;;;;;9.73;5.57;;;;;;;22.40;63.57;101403.66;5066282;28;20557;-62
2021/09/15 11:29:42;;;;;;;6.07;5.07;;;;;;;22.40;63.38;101404.50;5068186;28;20036;-62
2021/09/15 11:32:11;;;;;;;8.38;4.75;;;;;;;22.44;63.26;101401.44;5068015;28;20031;-62